Time;durP1;ratioP1;P1;durP2;ratioP2;P2;SDS_P1;SDS_P2;PMS_P1;PMS_P2;Temp;Humidity;BMP_temperature;BMP_pressure;BME280_temperature;BME280_humidity;BME280_pressure;Samples;Min_cycle;Max_cycle;Signal;HPM_P1;HPM_P2
2023/10/07 00:02:17;;;;;;;9.55;3.47;;;;;;;24.04;36.28;100460.81;4483262;32;33927;-64
2023/10/07 00:04:45;;;;;;;5.60;2.95;;;;;;;24.04;36.06;100453.47;4484339;32;33953;-64
2023/10/07 00:07:13;;;;;;;6.93;3.47;;;;;;;24.01;36.30;100455.78;4484329;32;33127;-64
2023/10/07 00:09:43;;;;;;;8.30;2.95;;;;;;;23.97;36.36;100452.69;4457215;32;33808;-64
2023/10/07 00:12:16;;;;;;;8.05;3.37;;;;;;;23.95;36.33;100454.75;4470214;32;34640;-65
2023/10/07 00:14:43;;;;;;;7.78;3.50;;;;;;;23.95;36.36;100440.31;4484371;32;33798;-64
2023/10/07 00:17:17;;;;;;;7.37;3.55;;;;;;;23.94;36.39;100442.19;4484241;32;33325;-63
2023/10/07 00:19:46;;;;;;;6.43;2.92;;;;;;;23.93;36.42;100429.63;4470729;32;34619;-63
2023/10/07 00:22:15;;;;;;;6.68;2.92;;;;;;;23.92;36.37;100436.09;4484185;32;33783;-64
2023/10/07 00:24:48;;;;;;;5.78;3.25;;;;;;;23.91;36.38;100428.97;4484148;32;34125;-64
2023/10/07 00:27:31;;;;;;;7.45;3.20;;;;;;;23.90;36.38;100430.88;4470992;32;33258;-64
2023/10/07 00:30:00;;;;;;;8.50;3.45;;;;;;;23.90;36.31;100430.88;4484216;32;34706;-65
2023/10/07 00:32:30;;;;;;;;;;;;;;;23.90;36.24;100435.50;4484818;32;34661;-64
2023/10/07 00:35:00;;;;;;;6.62;3.25;;;;;;;23.97;36.03;100430.88;4484175;32;34208;-64
2023/10/07 00:37:33;;;;;;;5.97;3.03;;;;;;;23.90;36.31;100430.03;4470351;32;33423;-65
2023/10/07 00:42:50;;;;;;;6.72;2.90;;;;;;;23.87;36.29;100422.28;4472193;32;33578;-64
2023/10/07 00:45:20;;;;;;;6.22;3.33;;;;;;;23.84;36.30;100420.84;4483846;32;34071;-64
2023/10/07 00:47:49;;;;;;;11.93;3.25;;;;;;;23.85;36.20;100410.78;4469951;32;33698;-64
2023/10/07 00:50:17;;;;;;;5.65;2.80;;;;;;;23.85;36.20;100411.59;4483950;32;33477;-64
2023/10/07 00:55:34;;;;;;;6.15;2.87;;;;;;;23.84;36.15;100400.94;4482820;32;33680;-63
2023/10/07 00:58:35;;;;;;;5.90;3.05;;;;;;;23.82;36.24;100387.50;4483699;32;34202;-63
2023/10/07 01:00:56;;;;;;;6.50;2.78;;;;;;;23.84;36.20;100387.31;4480706;32;33903;-64
2023/10/07 01:08:34;;;;;;;6.57;3.35;;;;;;;23.83;36.26;100380.19;4483815;32;33334;-66
2023/10/07 01:11:39;;;;;;;8.63;3.22;;;;;;;23.82;36.23;100373.88;4482675;32;34922;-65
2023/10/07 01:14:00;;;;;;;6.87;2.95;;;;;;;23.83;36.23;100377.47;4471785;32;33715;-66
2023/10/07 01:19:18;;;;;;;7.03;3.00;;;;;;;23.81;36.15;100369.47;4485715;32;33536;-66
2023/10/07 01:21:54;;;;;;;7.00;3.35;;;;;;;23.82;36.19;100367.59;4471350;32;34216;-66
2023/10/07 01:29:59;;;;;;;6.85;3.40;;;;;;;23.81;36.13;100361.31;4485428;32;33204;-65
2023/10/07 01:32:34;;;;;;;7.53;3.55;;;;;;;23.82;36.17;100353.97;4484385;32;34070;-66
2023/10/07 01:35:10;;;;;;;5.95;2.97;;;;;;;23.80;36.17;100351.47;4485644;32;34763;-65
2023/10/07 01:37:43;;;;;;;6.53;3.42;;;;;;;23.79;36.13;100349.81;4472337;32;33859;-66
2023/10/07 01:40:15;;;;;;;7.22;3.17;;;;;;;23.80;36.13;100347.91;4485328;32;33507;-65
2023/10/07 01:42:44;;;;;;;6.43;2.97;;;;;;;23.79;36.19;100352.53;4485384;32;33759;-65
2023/10/07 01:45:20;;;;;;;5.93;2.95;;;;;;;23.79;36.11;100348.97;4485192;32;33722;-64
2023/10/07 01:47:49;;;;;;;6.53;2.95;;;;;;;23.79;36.13;100346.25;4485167;32;34827;-63
2023/10/07 01:50:18;;;;;;;6.37;3.12;;;;;;;23.78;36.18;100350.84;4485452;32;33219;-65
2023/10/07 01:52:48;;;;;;;6.70;2.90;;;;;;;23.78;36.15;100350.84;4485294;32;34667;-65
2023/10/07 01:55:16;;;;;;;9.40;3.60;;;;;;;23.78;36.15;100348.13;4485378;32;33990;-67
2023/10/07 01:57:45;;;;;;;6.97;3.47;;;;;;;23.79;36.11;100340.78;4485264;32;33735;-64
2023/10/07 02:00:13;;;;;;;6.85;3.28;;;;;;;23.79;36.11;100343.50;4483895;32;32596;-64
2023/10/07 02:02:49;;;;;;;5.35;3.05;;;;;;;23.78;36.06;100339.09;4484151;32;34654;-65
2023/10/07 02:05:25;;;;;;;5.40;2.87;;;;;;;23.78;36.04;100336.38;4485242;32;34778;-64
2023/10/07 02:07:54;;;;;;;5.72;3.00;;;;;;;23.78;36.01;100342.69;4485159;32;33907;-64
2023/10/07 02:10:23;;;;;;;7.50;2.90;;;;;;;23.77;36.09;100338.25;4485228;32;33239;-65
2023/10/07 02:12:53;;;;;;;6.45;2.95;;;;;;;23.78;35.99;100345.41;4483919;32;33899;-63
2023/10/07 02:15:20;;;;;;;6.62;3.05;;;;;;;23.79;35.98;100346.25;4471257;32;33871;-64
2023/10/07 02:17:48;;;;;;;8.05;3.65;;;;;;;23.78;36.11;100334.50;4485301;32;34678;-64
2023/10/07 02:20:25;;;;;;;5.72;2.78;;;;;;;23.78;36.02;100328.19;4485041;32;34073;-63
2023/10/07 02:22:53;;;;;;;7.45;3.53;;;;;;;23.78;35.96;100330.91;4483901;32;34695;-64
2023/10/07 02:25:29;;;;;;;5.12;2.72;;;;;;;23.77;36.03;100326.53;4484417;32;33591;-65
2023/10/07 02:27:57;;;;;;;7.20;2.90;;;;;;;23.76;35.96;100322.97;4470981;32;33737;-65
2023/10/07 02:30:25;;;;;;;6.12;2.80;;;;;;;23.78;36.03;100322.75;4485143;32;33365;-63
2023/10/07 02:32:54;;;;;;;6.37;3.30;;;;;;;23.76;35.87;100319.41;4484817;32;34656;-64
2023/10/07 02:35:25;;;;;;;6.93;2.95;;;;;;;23.76;35.94;100314.78;4485383;32;33892;-64
2023/10/07 02:37:53;;;;;;;6.85;3.10;;;;;;;23.75;35.93;100318.59;4471386;32;33940;-65
2023/10/07 02:40:35;;;;;;;7.53;3.17;;;;;;;23.76;35.92;100322.97;4484923;32;33493;-63
2023/10/07 02:43:09;;;;;;;7.20;3.00;;;;;;;23.75;35.93;100317.75;4484984;32;33436;-64
2023/10/07 02:45:39;;;;;;;17.33;3.10;;;;;;;23.75;35.92;100315.03;4483375;32;33919;-64
2023/10/07 02:48:13;;;;;;;6.22;2.60;;;;;;;23.73;36.09;100311.66;4483667;32;34683;-63
2023/10/07 02:50:42;;;;;;;7.28;3.35;;;;;;;23.73;36.13;100308.94;4484764;32;33305;-63
2023/10/07 02:53:16;;;;;;;6.43;3.05;;;;;;;23.74;36.15;100299.72;4485158;32;33863;-64
2023/10/07 02:58:26;;;;;;;6.90;3.10;;;;;;;23.74;36.06;100307.91;4484981;32;34056;-63
2023/10/07 03:00:58;;;;;;;7.32;3.45;;;;;;;23.73;36.34;100292.59;4483764;32;33616;-64
2023/10/07 03:05:58;;;;;;;6.57;3.05;;;;;;;23.73;36.15;100292.59;4484771;32;33842;-63
2023/10/07 03:11:21;;;;;;;6.05;3.15;;;;;;;23.71;35.95;100286.53;4483797;32;34175;-64
2023/10/07 03:13:57;;;;;;;6.18;2.85;;;;;;;23.70;36.07;100287.59;4471487;32;33637;-64
2023/10/07 03:16:28;;;;;;;6.97;3.10;;;;;;;23.70;36.02;100287.59;4484770;32;33557;-64
2023/10/07 03:24:13;;;;;;;6.80;3.35;;;;;;;23.68;35.98;100291.34;4483627;32;33705;-64
2023/10/07 03:26:43;;;;;;;7.95;2.97;;;;;;;23.69;35.97;100286.75;4483424;32;34040;-64
2023/10/07 03:29:30;;;;;;;7.57;3.00;;;;;;;23.68;36.04;100285.06;4483514;32;34711;-64
2023/10/07 03:32:00;;;;;;;5.55;2.72;;;;;;;23.67;36.22;100286.97;4483407;32;32448;-64
2023/10/07 03:34:28;;;;;;;6.15;2.95;;;;;;;23.66;36.15;100290.75;4483531;32;33952;-64
2023/10/07 03:39:55;;;;;;;6.97;3.45;;;;;;;23.66;36.27;100281.72;4484645;32;34569;-65
2023/10/07 03:42:23;;;;;;;9.60;3.40;;;;;;;23.66;36.37;100287.19;4484751;32;33693;-65
2023/10/07 03:44:51;;;;;;;7.95;2.85;;;;;;;23.67;36.49;100291.56;4483219;32;34004;-65
2023/10/07 03:47:19;;;;;;;7.18;3.00;;;;;;;23.67;36.55;100283.41;4483331;32;34803;-65
2023/10/07 03:49:52;;;;;;;7.25;3.22;;;;;;;23.67;36.58;100284.22;4484246;32;34073;-65
2023/10/07 03:52:21;;;;;;;7.12;3.08;;;;;;;23.68;36.65;100285.06;4484502;32;33229;-65
2023/10/07 03:54:49;;;;;;;6.32;3.00;;;;;;;23.68;36.68;100282.34;4484473;32;34251;-65
2023/10/07 03:57:18;;;;;;;8.23;3.20;;;;;;;23.68;36.77;100279.62;4483426;32;33696;-65
2023/10/07 03:59:46;;;;;;;7.15;3.53;;;;;;;23.68;36.76;100291.34;4484523;32;33505;-64
2023/10/07 04:05:00;;;;;;;;;;;;;;;23.69;36.82;100286.75;4484784;32;33550;-65
2023/10/07 04:07:30;;;;;;;5.70;3.12;;;;;;;23.78;36.71;100293.63;4484493;32;34152;-65
2023/10/07 04:10:12;;;;;;;5.68;2.92;;;;;;;23.69;36.82;100292.22;4484458;32;34740;-65
2023/10/07 04:12:39;;;;;;;7.35;3.15;;;;;;;23.69;36.91;100289.47;4484510;32;33974;-65
2023/10/07 04:15:12;;;;;;;8.38;3.17;;;;;;;23.68;36.95;100282.34;4484011;32;33531;-66
2023/10/07 04:17:42;;;;;;;5.87;2.90;;;;;;;23.67;37.01;100275.22;4484335;32;34910;-65
2023/10/07 04:20:32;;;;;;;5.85;2.87;;;;;;;23.67;37.06;100281.50;4484539;32;33964;-64
2023/10/07 04:23:00;;;;;;;5.97;3.03;;;;;;;23.66;37.11;100271.66;4483619;32;33384;-64
2023/10/07 04:25:39;;;;;;;7.00;3.10;;;;;;;23.73;37.02;100273.50;4484061;32;33513;-65
2023/10/07 04:28:07;;;;;;;6.65;2.75;;;;;;;23.77;37.02;100275.59;4484538;32;33390;-64
2023/10/07 04:30:46;;;;;;;6.05;2.87;;;;;;;23.80;36.98;100274.34;4482980;32;33907;-65
2023/10/07 04:33:17;;;;;;;6.37;3.17;;;;;;;23.81;37.01;100271.37;4483165;32;34108;-64
2023/10/07 04:35:50;;;;;;;6.50;2.53;;;;;;;23.84;36.94;100270.13;4483030;32;34286;-64
2023/10/07 04:41:36;;;;;;;8.05;3.50;;;;;;;23.85;36.99;100258.16;4484078;32;34218;-64
2023/10/07 04:46:23;;;;;;;6.32;3.28;;;;;;;23.86;37.06;100273.44;4483836;32;33876;-65
2023/10/07 04:49:00;;;;;;;5.93;2.83;;;;;;;23.86;37.10;100266.09;4482566;32;33490;-65
2023/10/07 04:53:59;;;;;;;6.80;3.10;;;;;;;23.86;37.13;100268.00;4454486;32;33158;-66
2023/10/07 04:56:27;;;;;;;5.55;2.85;;;;;;;23.88;37.13;100274.09;4467119;32;34626;-66
2023/10/07 04:58:54;;;;;;;6.37;3.03;;;;;;;23.88;37.11;100265.91;4467052;32;32750;-66
2023/10/07 05:01:30;;;;;;;5.80;3.12;;;;;;;23.89;37.16;100268.41;4471268;32;33566;-66
2023/10/07 05:04:04;;;;;;;5.65;2.95;;;;;;;23.89;37.20;100262.97;4476041;32;32354;-67
2023/10/07 05:06:34;;;;;;;5.70;2.90;;;;;;;23.90;37.22;100263.78;4481669;32;34354;-66
2023/10/07 05:09:03;;;;;;;5.72;2.90;;;;;;;23.89;37.24;100260.22;4483411;32;34697;-66
2023/10/07 05:11:30;;;;;;;9.95;2.97;;;;;;;23.90;37.25;100266.50;4483193;32;34612;-67
2023/10/07 05:13:58;;;;;;;6.72;2.87;;;;;;;23.90;37.25;100269.25;4480542;32;34283;-65
2023/10/07 05:16:26;;;;;;;6.57;3.05;;;;;;;23.90;37.31;100263.78;4483663;32;34827;-67
2023/10/07 05:18:54;;;;;;;5.25;2.85;;;;;;;23.92;37.31;100264.37;4483727;31;33351;-64
2023/10/07 05:21:22;;;;;;;5.45;2.92;;;;;;;23.91;37.32;100265.47;4483698;32;33855;-67
2023/10/07 05:23:51;;;;;;;5.40;2.67;;;;;;;23.91;37.33;100265.47;4482466;32;33623;-65
2023/10/07 05:26:19;;;;;;;5.78;2.90;;;;;;;23.92;37.32;100270.72;4483460;32;34360;-66
2023/10/07 05:28:46;;;;;;;5.65;2.70;;;;;;;23.93;37.35;100263.38;4483338;32;33624;-65
2023/10/07 05:31:14;;;;;;;6.25;2.80;;;;;;;23.91;37.37;100266.28;4483530;32;34919;-65
2023/10/07 05:33:43;;;;;;;5.03;2.53;;;;;;;23.92;37.35;100265.25;4482275;32;33396;-66
2023/10/07 05:36:13;;;;;;;5.30;2.60;;;;;;;23.91;37.37;100269.00;4483507;32;33640;-67
2023/10/07 05:38:44;;;;;;;6.12;2.85;;;;;;;23.92;37.39;100259.81;4482096;32;34795;-67
2023/10/07 05:41:14;;;;;;;;;;;;;;;23.94;37.41;100262.31;4483518;32;33797;-67
2023/10/07 05:43:44;;;;;;;5.07;2.70;;;;;;;24.02;37.28;100262.06;4483434;32;33367;-67
2023/10/07 05:46:12;;;;;;;5.30;2.87;;;;;;;23.95;37.40;100263.13;4481967;32;34231;-67
2023/10/07 05:48:40;;;;;;;5.97;2.50;;;;;;;23.94;37.45;100270.47;4482849;32;33843;-65
2023/10/07 05:51:08;;;;;;;5.45;2.87;;;;;;;23.95;37.49;100274.03;4475111;32;34354;-66
2023/10/07 05:53:37;;;;;;;5.93;2.50;;;;;;;23.93;37.51;100279.72;4475122;32;33287;-65
2023/10/07 05:56:06;;;;;;;6.95;2.92;;;;;;;23.94;37.52;100286.84;4481711;32;34550;-67
2023/10/07 05:58:35;;;;;;;6.40;2.43;;;;;;;23.95;37.56;100284.94;4469098;32;34796;-67
2023/10/07 06:01:08;;;;;;;5.10;2.62;;;;;;;23.96;37.60;100283.88;4484089;32;33796;-66
2023/10/07 06:03:36;;;;;;;5.25;2.45;;;;;;;23.95;37.65;100284.94;4484069;32;33359;-68
2023/10/07 06:06:04;;;;;;;5.57;2.70;;;;;;;23.94;37.65;100275.94;4484071;32;33833;-65
2023/10/07 06:08:34;;;;;;;5.18;2.78;;;;;;;23.96;37.65;100286.59;4485142;32;34720;-66
2023/10/07 06:11:04;;;;;;;5.22;2.45;;;;;;;23.96;37.66;100286.59;4484054;32;34001;-65
2023/10/07 06:13:33;;;;;;;4.68;2.55;;;;;;;23.95;37.69;100277.59;4484447;32;33430;-65
2023/10/07 06:16:04;;;;;;;8.02;2.78;;;;;;;23.96;37.78;100292.06;4483200;32;34667;-67
2023/10/07 06:18:33;;;;;;;8.38;2.70;;;;;;;23.96;37.69;100283.88;4484758;32;33892;-65
2023/10/07 06:21:19;;;;;;;9.23;2.60;;;;;;;23.95;37.73;100287.66;4483446;32;34010;-65
2023/10/07 06:23:48;;;;;;;8.13;2.80;;;;;;;23.95;37.71;100293.94;4473042;32;33528;-65
2023/10/07 06:26:16;;;;;;;6.30;2.60;;;;;;;23.97;37.78;100291.84;4483486;32;34787;-65
2023/10/07 06:28:45;;;;;;;4.97;2.50;;;;;;;23.96;37.75;100292.88;4484643;32;33751;-65
2023/10/07 06:31:14;;;;;;;5.47;2.62;;;;;;;23.96;37.77;100287.44;4485031;32;34655;-66
2023/10/07 06:33:43;;;;;;;10.52;2.75;;;;;;;23.98;37.80;100298.16;4483650;32;33248;-65
2023/10/07 06:36:12;;;;;;;7.07;2.90;;;;;;;23.98;37.87;100298.97;4470651;32;33709;-66
2023/10/07 06:38:52;;;;;;;10.32;2.95;;;;;;;23.98;37.84;100300.88;4483507;32;34790;-66
2023/10/07 06:41:20;;;;;;;4.63;2.33;;;;;;;23.98;37.90;100293.53;4483658;32;33991;-66
2023/10/07 06:43:50;;;;;;;6.62;2.83;;;;;;;23.99;37.80;100297.91;4483265;32;33328;-66
2023/10/07 06:46:20;;;;;;;5.55;2.10;;;;;;;23.99;37.78;100300.63;4484375;32;33873;-67
2023/10/07 06:48:48;;;;;;;6.80;2.80;;;;;;;23.98;37.86;100307.16;4484427;32;34935;-67
2023/10/07 06:51:16;;;;;;;5.90;2.60;;;;;;;23.99;37.92;100305.25;4475750;32;33888;-66
2023/10/07 06:53:44;;;;;;;6.43;2.72;;;;;;;23.99;37.94;100299.81;4467750;32;34106;-63
2023/10/07 06:56:20;;;;;;;13.05;2.60;;;;;;;23.99;38.08;100308.81;4468828;32;33881;-62
2023/10/07 06:58:54;;;;;;;6.72;2.35;;;;;;;23.99;38.06;100303.38;4455667;32;34693;-63
2023/10/07 07:01:35;;;;;;;6.93;2.78;;;;;;;24.00;38.13;100305.03;4467591;32;34067;-63
2023/10/07 07:04:14;;;;;;;10.85;2.90;;;;;;;24.00;38.15;100301.47;4475428;32;33020;-63
2023/10/07 07:06:45;;;;;;;11.23;3.00;;;;;;;24.00;38.26;100306.94;4476217;32;33628;-64
2023/10/07 07:12:03;;;;;;;9.57;3.00;;;;;;;23.99;38.31;100288.91;4468965;32;33827;-62
2023/10/07 07:14:31;;;;;;;9.73;2.92;;;;;;;23.98;38.29;100301.69;4469023;32;34360;-63
2023/10/07 07:17:29;;;;;;;7.68;2.85;;;;;;;23.99;38.35;100302.53;4454976;32;33317;-63
2023/10/07 07:20:19;;;;;;;;;;;;;;;23.97;38.42;100283.69;4468369;32;34854;-63
2023/10/07 07:22:45;;;;;;;10.60;2.62;;;;;;;24.07;38.18;100286.75;4467989;32;34015;-63
2023/10/07 07:25:39;;;;;;;4.87;2.40;;;;;;;24.01;38.26;100305.88;4469017;32;33385;-65
2023/10/07 07:28:06;;;;;;;8.75;2.75;;;;;;;23.93;38.43;100290.63;4457414;32;33911;-62
2023/10/07 07:30:35;;;;;;;9.10;3.25;;;;;;;23.89;38.61;100287.47;4468662;32;33997;-62
2023/10/07 07:33:15;;;;;;;7.95;3.00;;;;;;;23.86;38.70;100290.63;4468514;32;34036;-62
2023/10/07 07:35:43;;;;;;;;;;;;;;;23.84;38.76;100284.59;4467757;32;34192;-63
2023/10/07 07:38:30;;;;;;;9.35;2.72;;;;;;;23.92;38.63;100294.37;4468404;32;34998;-64
2023/10/07 07:41:26;;;;;;;7.90;2.80;;;;;;;23.85;38.69;100293.59;4479318;32;33894;-63
2023/10/07 07:43:58;;;;;;;7.12;2.58;;;;;;;23.81;38.71;100295.91;4483002;32;34205;-64
2023/10/07 07:46:29;;;;;;;7.18;2.80;;;;;;;23.80;38.71;100296.97;4470867;32;32875;-61
2023/10/07 07:49:06;;;;;;;;;;;;;;;23.80;38.72;100293.41;4483494;32;33851;-61
2023/10/07 07:51:43;;;;;;;7.80;2.78;;;;;;;23.88;38.59;100295.88;4484745;32;33878;-62
2023/10/07 07:54:14;;;;;;;6.15;2.58;;;;;;;23.80;38.68;100283.34;4484548;32;34042;-62
2023/10/07 07:56:42;;;;;;;8.25;2.80;;;;;;;23.78;38.74;100290.91;4484258;32;33724;-62
2023/10/07 07:59:18;;;;;;;7.20;3.08;;;;;;;23.77;38.78;100291.09;4484113;32;33689;-62
2023/10/07 08:02:12;;;;;;;6.82;2.87;;;;;;;23.82;38.67;100277.66;4484136;32;33969;-63
2023/10/07 08:04:50;;;;;;;6.75;2.75;;;;;;;23.80;38.72;100277.87;4483049;32;34732;-62
2023/10/07 08:09:50;;;;;;;8.05;3.08;;;;;;;23.77;38.81;100297.38;4483101;32;33662;-63
2023/10/07 08:12:19;;;;;;;7.22;3.33;;;;;;;23.78;38.86;100303.66;4484310;32;33861;-63
2023/10/07 08:14:50;;;;;;;9.43;3.33;;;;;;;23.77;38.91;100310.19;4482906;32;34270;-63
2023/10/07 08:17:19;;;;;;;6.55;2.83;;;;;;;23.77;38.92;100300.12;4483266;32;33159;-65
2023/10/07 08:19:50;;;;;;;6.57;3.30;;;;;;;23.77;38.92;100302.84;4483205;32;34756;-62
2023/10/07 08:22:23;;;;;;;7.15;2.65;;;;;;;23.77;38.91;100294.66;4483027;32;34824;-64
2023/10/07 08:24:52;;;;;;;9.73;3.22;;;;;;;23.77;38.91;100293.84;4484312;32;33530;-63
2023/10/07 08:30:09;;;;;;;11.43;3.15;;;;;;;23.78;38.87;100290.91;4484248;32;34732;-63
2023/10/07 08:32:41;;;;;;;9.73;3.08;;;;;;;23.78;38.89;100295.50;4484327;32;33614;-62
2023/10/07 08:35:18;;;;;;;6.00;2.90;;;;;;;23.77;38.91;100293.84;4484375;32;33963;-63
2023/10/07 08:37:46;;;;;;;7.43;3.45;;;;;;;23.77;38.90;100289.22;4484239;32;34320;-63
2023/10/07 08:40:28;;;;;;;7.43;3.15;;;;;;;23.77;38.89;100272.03;4484014;32;33694;-63
2023/10/07 08:43:00;;;;;;;5.30;2.87;;;;;;;23.77;38.91;100264.69;4483979;32;34474;-64
2023/10/07 08:45:31;;;;;;;8.32;3.55;;;;;;;23.76;38.93;100265.75;4483960;32;34613;-64
2023/10/07 08:48:08;;;;;;;6.72;3.00;;;;;;;23.76;38.97;100282.09;4469775;32;33326;-63
2023/10/07 08:50:52;;;;;;;6.93;2.97;;;;;;;23.76;38.99;100276.66;4471166;32;33834;-64
2023/10/07 08:53:26;;;;;;;6.55;3.25;;;;;;;23.77;38.99;100280.22;4484001;32;34785;-63
2023/10/07 08:55:54;;;;;;;6.15;2.80;;;;;;;23.76;38.98;100279.38;4470137;32;33990;-65
2023/10/07 08:58:26;;;;;;;5.95;2.80;;;;;;;23.75;38.98;100274.16;4482759;32;34036;-66
2023/10/07 09:00:56;;;;;;;9.27;3.20;;;;;;;23.76;38.96;100282.09;4482733;32;33847;-65
2023/10/07 09:03:28;;;;;;;6.07;2.83;;;;;;;23.78;38.92;100276.41;4483087;32;34034;-64
2023/10/07 09:06:00;;;;;;;7.50;3.67;;;;;;;23.80;38.89;100274.34;4484073;32;33498;-63
2023/10/07 09:08:33;;;;;;;7.47;2.95;;;;;;;23.79;38.91;100275.41;4484072;32;33525;-62
2023/10/07 09:11:13;;;;;;;6.90;3.72;;;;;;;23.78;38.89;100269.12;4475508;32;34653;-66
2023/10/07 09:13:41;;;;;;;7.82;3.47;;;;;;;23.80;38.91;100268.88;4480464;32;34738;-65
2023/10/07 09:16:12;;;;;;;8.98;3.60;;;;;;;23.80;38.92;100274.34;4483717;32;33707;-65
2023/10/07 09:18:42;;;;;;;7.47;3.35;;;;;;;23.80;38.97;100277.87;4482557;32;34059;-65
2023/10/07 09:21:19;;;;;;;8.43;3.12;;;;;;;23.80;38.97;100271.59;4483431;32;33958;-66
2023/10/07 09:23:59;;;;;;;9.70;3.40;;;;;;;23.79;39.01;100270.78;4483604;32;34249;-65
2023/10/07 09:26:33;;;;;;;9.77;4.07;;;;;;;23.81;39.08;100270.53;4483417;32;34874;-66
2023/10/07 09:29:35;;;;;;;10.15;3.85;;;;;;;23.82;39.11;100267.59;4483458;32;33585;-65
2023/10/07 09:32:16;;;;;;;8.65;3.60;;;;;;;23.81;39.11;100265.09;4481635;31;34397;-64
2023/10/07 09:34:45;;;;;;;11.32;3.78;;;;;;;23.82;39.17;100256.69;4484209;32;34792;-65
2023/10/07 09:37:17;;;;;;;9.52;3.67;;;;;;;23.81;39.19;100263.22;4485467;32;34262;-65
2023/10/07 09:39:45;;;;;;;9.45;4.07;;;;;;;23.80;39.22;100261.53;4484332;32;33139;-62
2023/10/07 09:42:26;;;;;;;10.55;3.92;;;;;;;23.82;39.27;100255.88;4485368;32;34632;-63
2023/10/07 09:45:09;;;;;;;10.43;4.05;;;;;;;23.82;39.27;100253.13;4483824;32;34660;-67
2023/10/07 09:47:40;;;;;;;12.00;3.78;;;;;;;23.82;39.35;100253.13;4483900;32;34146;-63
2023/10/07 09:50:27;;;;;;;10.38;3.53;;;;;;;23.82;39.33;100243.06;4485443;32;33345;-64
2023/10/07 09:53:18;;;;;;;10.80;3.80;;;;;;;23.82;39.41;100248.53;4484299;32;34109;-63
2023/10/07 09:55:47;;;;;;;11.73;3.95;;;;;;;23.84;39.42;100248.31;4473006;32;34674;-63
2023/10/07 09:58:22;;;;;;;;;;;;;;;23.86;39.41;100243.47;4485917;32;33453;-62
2023/10/07 10:01:05;;;;;;;12.30;4.30;;;;;;;23.97;39.24;100245.53;4483836;32;32081;-63
2023/10/07 10:03:42;;;;;;;8.50;4.12;;;;;;;23.90;39.32;100252.88;4482245;32;34689;-62
2023/10/07 10:06:26;;;;;;;9.70;3.70;;;;;;;23.85;39.55;100239.91;4469658;32;33995;-63
2023/10/07 10:08:57;;;;;;;9.85;4.28;;;;;;;23.87;39.67;100243.25;4468373;32;33241;-62
2023/10/07 10:11:31;;;;;;;16.37;4.70;;;;;;;23.90;39.61;100247.44;4455725;32;33897;-63
2023/10/07 10:16:47;;;;;;;9.60;4.10;;;;;;;23.91;39.59;100247.22;4474354;32;33944;-65
2023/10/07 10:19:29;;;;;;;13.60;4.95;;;;;;;23.94;39.60;100232.31;4472345;32;33630;-67
2023/10/07 10:22:10;;;;;;;11.88;4.75;;;;;;;23.96;39.63;100232.94;4482042;32;33809;-64
2023/10/07 10:24:42;;;;;;;10.43;5.22;;;;;;;23.96;39.63;100227.47;4479708;32;34620;-64
2023/10/07 10:27:11;;;;;;;11.52;4.72;;;;;;;23.95;39.66;100223.09;4468247;32;34015;-64
2023/10/07 10:29:52;;;;;;;12.30;4.47;;;;;;;23.95;39.62;100225.81;4480301;31;34672;-67
2023/10/07 10:32:29;;;;;;;12.10;4.82;;;;;;;23.96;39.70;100216.56;4469298;32;33480;-66
2023/10/07 10:35:03;;;;;;;10.13;4.37;;;;;;;23.97;39.66;100220.13;4477974;32;33828;-67
2023/10/07 10:37:32;;;;;;;14.32;5.05;;;;;;;23.97;39.64;100220.13;4468022;32;33525;-64
2023/10/07 10:40:14;;;;;;;7.95;4.45;;;;;;;23.97;39.60;100212.81;4460312;32;34722;-62
2023/10/07 10:42:47;;;;;;;12.63;4.72;;;;;;;23.99;39.62;100209.84;4472931;32;33673;-67
2023/10/07 10:45:23;;;;;;;10.02;4.50;;;;;;;23.98;39.53;100211.75;4456994;32;33205;-62
2023/10/07 10:47:52;;;;;;;10.07;4.50;;;;;;;23.99;39.49;100209.84;4482060;32;33790;-63
2023/10/07 10:50:23;;;;;;;8.82;4.30;;;;;;;23.95;39.63;100204.00;4476454;32;33833;-65
2023/10/07 10:52:59;;;;;;;14.93;5.68;;;;;;;23.92;39.68;100199.84;4470079;32;33320;-67
2023/10/07 10:55:38;;;;;;;12.57;4.50;;;;;;;23.91;39.76;100192.69;4476867;32;34045;-63
2023/10/07 10:58:17;;;;;;;12.37;4.62;;;;;;;23.91;39.72;100195.44;4470961;32;33920;-67
2023/10/07 11:00:51;;;;;;;15.82;5.07;;;;;;;23.90;39.72;100184.75;4484940;32;34060;-65
2023/10/07 11:03:21;;;;;;;11.77;4.95;;;;;;;23.88;39.77;100176.81;4483316;32;33287;-64
2023/10/07 11:05:53;;;;;;;11.18;4.65;;;;;;;23.88;39.94;100179.53;4479376;32;33903;-66
2023/10/07 11:08:24;;;;;;;12.13;5.07;;;;;;;23.87;39.96;100174.28;4479714;32;33521;-64
2023/10/07 11:10:57;;;;;;;10.77;4.30;;;;;;;23.87;39.88;100171.56;4470696;32;34502;-64
2023/10/07 11:13:25;;;;;;;14.30;4.72;;;;;;;23.87;39.92;100166.94;4477520;32;34598;-68
2023/10/07 11:16:09;;;;;;;10.50;4.60;;;;;;;23.87;39.83;100161.50;4475071;32;33979;-65
2023/10/07 11:18:38;;;;;;;12.18;5.35;;;;;;;23.87;39.95;100157.94;4461552;32;33554;-64
2023/10/07 11:21:09;;;;;;;15.07;5.03;;;;;;;23.87;39.88;100158.75;4471806;32;34545;-65
2023/10/07 11:23:55;;;;;;;11.75;4.78;;;;;;;23.86;39.90;100146.19;4469094;32;33443;-65
2023/10/07 11:26:24;;;;;;;9.65;4.75;;;;;;;23.87;39.92;100149.75;4479693;32;32466;-66
2023/10/07 11:28:55;;;;;;;10.93;4.65;;;;;;;23.86;39.95;100145.37;4468581;32;33422;-66
2023/10/07 11:31:30;;;;;;;11.38;4.22;;;;;;;23.88;39.85;100156.91;4482462;32;33724;-65
2023/10/07 11:33:59;;;;;;;15.95;4.50;;;;;;;23.87;40.00;100150.59;4477782;32;33391;-65
2023/10/07 11:36:27;;;;;;;9.95;4.37;;;;;;;23.87;40.04;100147.03;4478517;32;34409;-64
2023/10/07 11:38:56;;;;;;;13.48;5.50;;;;;;;23.88;40.10;100146.00;4477284;32;33902;-63
2023/10/07 11:41:24;;;;;;;11.65;5.62;;;;;;;23.88;40.26;100140.56;4484161;32;33600;-65
2023/10/07 11:43:53;;;;;;;13.65;5.20;;;;;;;23.88;40.53;100133.22;4470225;32;33453;-63
2023/10/07 11:46:21;;;;;;;14.27;4.62;;;;;;;23.89;40.77;100136.75;4473727;32;34624;-63
2023/10/07 11:48:49;;;;;;;12.35;4.80;;;;;;;23.89;40.98;100136.75;4483945;32;34464;-65
2023/10/07 11:51:17;;;;;;;20.80;6.00;;;;;;;23.88;41.09;100125.03;4484353;32;34649;-64
2023/10/07 11:53:45;;;;;;;20.23;5.65;;;;;;;23.91;41.28;100126.47;4483440;32;34276;-67
2023/10/07 11:56:14;;;;;;;17.02;5.15;;;;;;;23.91;41.46;100130.00;4484086;31;33955;-67
2023/10/07 11:58:45;;;;;;;15.73;5.53;;;;;;;23.91;41.65;100127.28;4481428;31;33839;-63
2023/10/07 12:01:13;;;;;;;11.40;5.18;;;;;;;23.93;41.77;100129.81;4474451;31;33612;-65
2023/10/07 12:03:43;;;;;;;15.77;4.87;;;;;;;23.93;41.91;100125.19;4473793;31;33919;-66
2023/10/07 12:06:11;;;;;;;;;;;;;;;23.94;42.06;100123.31;4481000;32;33348;-67
2023/10/07 12:08:39;;;;;;;19.92;5.70;;;;;;;24.02;41.82;100127.66;4480654;31;34239;-60
2023/10/07 12:11:08;;;;;;;20.25;5.82;;;;;;;23.96;42.00;100126.62;4483978;32;33754;-61
2023/10/07 12:13:35;;;;;;;18.23;5.65;;;;;;;23.95;42.14;100124.97;4484116;32;34077;-65
2023/10/07 12:16:03;;;;;;;16.15;5.28;;;;;;;23.94;42.20;100115.13;4484034;32;33758;-64
2023/10/07 12:18:33;;;;;;;17.30;5.82;;;;;;;23.94;42.29;100112.41;4477831;32;33836;-63
2023/10/07 12:21:01;;;;;;;22.25;5.22;;;;;;;23.96;42.25;100104.00;4467673;31;34032;-64
2023/10/07 12:23:33;;;;;;;19.37;6.15;;;;;;;23.96;42.35;100112.16;4468293;32;34661;-61
2023/10/07 12:26:01;;;;;;;20.55;5.57;;;;;;;23.97;42.44;100108.37;4475694;31;34177;-63
2023/10/07 12:28:30;;;;;;;15.73;5.15;;;;;;;23.98;42.45;100104.63;4477810;32;34813;-62
2023/10/07 12:30:58;;;;;;;13.07;4.85;;;;;;;23.99;42.42;100101.66;4477277;31;33915;-62
2023/10/07 12:33:26;;;;;;;19.90;5.28;;;;;;;24.01;42.32;100101.44;4470766;31;33427;-64
2023/10/07 12:36:14;;;;;;;13.35;5.53;;;;;;;24.00;42.24;100097.03;4484068;31;34947;-62
2023/10/07 12:38:42;;;;;;;14.43;5.68;;;;;;;24.01;42.07;100096.81;4482697;32;34849;-60
2023/10/07 12:41:13;;;;;;;17.80;4.90;;;;;;;24.00;41.99;100103.31;4481931;31;33892;-60
2023/10/07 12:43:41;;;;;;;16.48;5.18;;;;;;;24.00;41.91;100107.94;4485565;31;34242;-63
2023/10/07 12:46:09;;;;;;;13.68;4.57;;;;;;;24.00;41.78;100106.06;4475146;31;34344;-63